createdAt,value
2022-11-07T00:00:20.605Z,8.60
2022-11-07T00:02:47.015Z,8.60
2022-11-07T00:05:13.448Z,8.59
2022-11-07T00:07:39.860Z,8.55
2022-11-07T00:10:06.656Z,8.54
2022-11-07T00:12:36.514Z,8.53
2022-11-07T00:15:04.190Z,8.53
2022-11-07T00:17:30.631Z,8.52
2022-11-07T00:19:57.083Z,8.51
2022-11-07T00:22:23.774Z,8.51
2022-11-07T00:24:50.143Z,8.47
2022-11-07T00:27:16.591Z,8.44
2022-11-07T00:29:43.000Z,8.41
2022-11-07T00:32:09.427Z,8.35
2022-11-07T00:34:35.841Z,8.32
2022-11-07T00:37:02.941Z,8.32
2022-11-07T00:39:29.386Z,8.31
2022-11-07T00:41:55.775Z,8.28
2022-11-07T00:44:22.835Z,8.27
2022-11-07T00:46:49.297Z,8.23
2022-11-07T00:49:15.669Z,8.22
2022-11-07T00:51:42.635Z,8.19
2022-11-07T00:54:09.028Z,8.16
2022-11-07T00:56:35.477Z,8.15
2022-11-07T00:59:01.844Z,8.12
2022-11-07T01:01:29.569Z,8.11
2022-11-07T01:04:14.845Z,8.08
2022-11-07T01:06:42.114Z,8.08
2022-11-07T01:09:12.434Z,8.06
2022-11-07T01:11:39.719Z,8.04
2022-11-07T01:14:06.770Z,8.05
2022-11-07T01:16:35.436Z,8.03
2022-11-07T01:19:02.659Z,7.99
2022-11-07T01:21:29.144Z,7.98
2022-11-07T01:23:55.536Z,7.96
2022-11-07T01:26:22.015Z,7.93
2022-11-07T01:28:48.388Z,7.93
2022-11-07T01:31:15.720Z,7.90
2022-11-07T01:33:42.469Z,7.87
2022-11-07T01:36:11.372Z,7.88
2022-11-07T01:38:39.423Z,7.93
2022-11-07T01:41:21.229Z,7.90
2022-11-07T01:43:47.739Z,7.87
2022-11-07T01:46:14.428Z,7.87
2022-11-07T01:48:42.424Z,7.89
2022-11-07T01:51:09.075Z,7.87
2022-11-07T01:53:35.756Z,7.88
2022-11-07T01:56:04.036Z,7.88
2022-11-07T01:58:30.476Z,7.88
2022-11-07T02:00:56.866Z,7.87
2022-11-07T02:03:23.259Z,7.88
2022-11-07T02:05:53.420Z,7.90
2022-11-07T02:08:21.475Z,7.90
2022-11-07T02:10:47.965Z,7.91
2022-11-07T02:13:17.851Z,7.91
2022-11-07T02:15:44.211Z,7.94
2022-11-07T02:18:10.687Z,7.91
2022-11-07T02:20:37.089Z,7.85
2022-11-07T02:23:09.032Z,7.77
2022-11-07T02:25:36.325Z,7.69
2022-11-07T02:28:06.079Z,7.72
2022-11-07T02:30:34.647Z,7.73
2022-11-07T02:33:01.557Z,7.70
2022-11-07T02:35:34.833Z,7.66
2022-11-07T02:38:02.348Z,7.65
2022-11-07T02:40:30.450Z,7.59
2022-11-07T02:42:57.366Z,7.54
2022-11-07T02:45:26.694Z,7.60
2022-11-07T02:47:53.160Z,7.65
2022-11-07T02:50:19.688Z,7.69
2022-11-07T02:52:46.074Z,7.67
2022-11-07T02:55:12.843Z,7.70
2022-11-07T02:57:39.215Z,7.65
2022-11-07T03:00:06.421Z,7.67
2022-11-07T03:02:32.950Z,7.69
2022-11-07T03:04:59.459Z,7.71
2022-11-07T03:07:25.855Z,7.72
2022-11-07T03:09:52.471Z,7.73
2022-11-07T03:12:18.925Z,7.73
2022-11-07T03:14:45.338Z,7.73
2022-11-07T03:17:11.737Z,7.75
2022-11-07T03:19:38.157Z,7.73
2022-11-07T03:22:04.611Z,7.74
2022-11-07T03:24:32.533Z,7.76
2022-11-07T03:26:59.158Z,7.76
2022-11-07T03:29:25.547Z,7.74
2022-11-07T03:31:51.905Z,7.72
2022-11-07T03:34:18.257Z,7.74
2022-11-07T03:36:44.648Z,7.75
2022-11-07T03:39:11.040Z,7.71
2022-11-07T03:41:37.447Z,7.66
2022-11-07T03:44:03.855Z,7.59
2022-11-07T03:46:30.297Z,7.58
2022-11-07T03:48:56.739Z,7.63
2022-11-07T03:51:23.117Z,7.64
2022-11-07T03:53:49.514Z,7.66
2022-11-07T03:56:15.974Z,7.65
2022-11-07T03:58:42.379Z,7.62
2022-11-07T04:01:10.508Z,7.60
2022-11-07T04:03:37.198Z,7.54
2022-11-07T04:06:03.595Z,7.55
2022-11-07T04:08:29.982Z,7.57
2022-11-07T04:10:56.374Z,7.60
2022-11-07T04:13:41.461Z,7.64
2022-11-07T04:16:27.790Z,7.64
2022-11-07T04:18:54.382Z,7.59
2022-11-07T04:21:20.991Z,7.60
2022-11-07T04:23:47.351Z,7.62
2022-11-07T04:26:32.152Z,7.57
2022-11-07T04:28:58.713Z,7.53
2022-11-07T04:31:25.399Z,7.51
2022-11-07T04:33:52.146Z,7.52
2022-11-07T04:36:19.000Z,7.47
2022-11-07T04:38:45.445Z,7.46
2022-11-07T04:41:22.616Z,7.48
2022-11-07T04:43:49.193Z,7.40
2022-11-07T04:46:16.416Z,7.34
2022-11-07T04:48:43.654Z,7.36
2022-11-07T04:51:28.209Z,7.36
2022-11-07T04:53:55.796Z,7.38
2022-11-07T04:56:22.165Z,7.43
2022-11-07T04:58:48.608Z,7.45
2022-11-07T05:01:15.018Z,7.45
2022-11-07T05:03:42.196Z,7.42
2022-11-07T05:06:10.331Z,7.38
2022-11-07T05:08:36.705Z,7.41
2022-11-07T05:11:03.087Z,7.35
2022-11-07T05:13:29.471Z,7.40
2022-11-07T05:15:55.835Z,7.42
2022-11-07T05:18:25.126Z,7.42
2022-11-07T05:20:51.560Z,7.36
2022-11-07T05:23:22.161Z,7.36
2022-11-07T05:25:49.857Z,7.38
2022-11-07T05:28:28.087Z,7.36
2022-11-07T05:31:02.335Z,7.33
2022-11-07T05:33:28.944Z,7.33
2022-11-07T05:35:55.364Z,7.32
2022-11-07T05:38:21.722Z,7.29
2022-11-07T05:40:48.085Z,7.27
2022-11-07T05:43:15.446Z,7.25
2022-11-07T05:45:42.110Z,7.24
2022-11-07T05:48:10.104Z,7.23
2022-11-07T05:50:36.925Z,7.19
2022-11-07T05:53:03.948Z,7.19
2022-11-07T05:55:30.947Z,7.24
2022-11-07T05:57:57.378Z,7.23
2022-11-07T06:00:23.953Z,7.25
2022-11-07T06:02:57.697Z,7.27
2022-11-07T06:05:24.569Z,7.33
2022-11-07T06:07:51.066Z,7.38
2022-11-07T06:10:17.575Z,7.38
2022-11-07T06:12:43.968Z,7.35
2022-11-07T06:15:10.532Z,7.35
2022-11-07T06:17:37.196Z,7.41
2022-11-07T06:20:04.605Z,7.44
2022-11-07T06:22:31.096Z,7.46
2022-11-07T06:24:57.468Z,7.44
2022-11-07T06:27:23.846Z,7.49
2022-11-07T06:29:50.229Z,7.54
2022-11-07T06:32:16.603Z,7.56
2022-11-07T06:34:42.995Z,7.54
2022-11-07T06:37:09.395Z,7.53
2022-11-07T06:39:35.758Z,7.48
2022-11-07T06:42:02.135Z,7.50
2022-11-07T06:44:28.498Z,7.55
2022-11-07T06:46:54.868Z,7.58
2022-11-07T06:49:21.304Z,7.65
2022-11-07T06:51:48.118Z,7.70
2022-11-07T06:54:14.685Z,7.74
2022-11-07T06:56:41.048Z,7.77
2022-11-07T06:59:07.466Z,7.81
2022-11-07T07:01:33.935Z,7.86
2022-11-07T07:04:01.010Z,7.91
2022-11-07T07:06:27.439Z,7.94
2022-11-07T07:08:54.628Z,7.97
2022-11-07T07:11:21.014Z,8.02
2022-11-07T07:13:47.430Z,8.05
2022-11-07T07:16:13.802Z,8.05
2022-11-07T07:18:40.223Z,8.07
2022-11-07T07:21:16.153Z,8.10
2022-11-07T07:23:42.603Z,8.15
2022-11-07T07:26:13.980Z,8.19
2022-11-07T07:28:40.922Z,8.21
2022-11-07T07:31:08.807Z,8.27
2022-11-07T07:33:35.355Z,8.30
2022-11-07T07:36:01.888Z,8.32
2022-11-07T07:38:28.257Z,8.33
2022-11-07T07:40:54.618Z,8.38
2022-11-07T07:43:20.989Z,8.40
2022-11-07T07:45:47.370Z,8.42
2022-11-07T07:48:13.751Z,8.43
2022-11-07T07:50:41.529Z,8.45
2022-11-07T07:53:09.257Z,8.52
2022-11-07T07:55:35.934Z,8.55
2022-11-07T07:58:02.315Z,8.59
2022-11-07T08:00:28.708Z,8.62
2022-11-07T08:03:01.940Z,8.63
2022-11-07T08:05:28.429Z,8.69
2022-11-07T08:07:54.917Z,8.78
2022-11-07T08:10:42.905Z,8.86
2022-11-07T08:13:07.894Z,8.98
2022-11-07T08:15:34.786Z,9.12
2022-11-07T08:18:02.325Z,9.26
2022-11-07T08:20:28.718Z,9.46
2022-11-07T08:23:08.671Z,9.57
2022-11-07T08:25:39.235Z,9.71
2022-11-07T08:28:06.170Z,9.80
2022-11-07T08:30:32.765Z,9.90
2022-11-07T08:32:59.875Z,10.02
2022-11-07T08:35:26.502Z,10.08
2022-11-07T08:37:53.858Z,10.15
2022-11-07T08:40:20.357Z,10.22
2022-11-07T08:42:46.801Z,10.32
2022-11-07T08:45:13.416Z,10.38
2022-11-07T08:47:39.793Z,10.43
2022-11-07T08:50:06.394Z,10.51
2022-11-07T08:52:34.420Z,10.59
2022-11-07T08:55:00.810Z,10.63
2022-11-07T08:57:27.174Z,10.69
2022-11-07T08:59:53.613Z,10.76
2022-11-07T09:05:06.647Z,10.83
2022-11-07T09:07:33.090Z,10.88
2022-11-07T09:09:59.769Z,10.91
2022-11-07T09:12:26.242Z,10.94
2022-11-07T09:14:52.613Z,10.96
2022-11-07T09:17:19.013Z,10.98
2022-11-07T09:19:45.448Z,11.01
2022-11-07T09:22:11.897Z,11.09
2022-11-07T09:24:38.288Z,11.11
2022-11-07T09:27:04.684Z,11.15
2022-11-07T09:29:31.087Z,11.20
2022-11-07T09:31:57.491Z,11.23
2022-11-07T09:34:23.845Z,11.24
2022-11-07T09:36:50.212Z,11.29
2022-11-07T09:39:16.643Z,11.32
2022-11-07T09:41:54.947Z,11.32
2022-11-07T09:44:40.987Z,11.33
2022-11-07T09:47:14.641Z,11.37
2022-11-07T09:49:44.123Z,11.38
2022-11-07T09:52:38.522Z,11.36
2022-11-07T09:55:05.031Z,11.35
2022-11-07T09:57:34.372Z,11.33
2022-11-07T10:00:02.403Z,11.36
2022-11-07T10:02:31.002Z,11.39
2022-11-07T10:04:59.640Z,11.41
2022-11-07T10:07:31.301Z,11.39
2022-11-07T10:10:00.455Z,11.39
2022-11-07T10:12:45.589Z,11.41
2022-11-07T10:15:18.241Z,11.42
2022-11-07T10:17:44.601Z,11.46
2022-11-07T10:20:14.719Z,11.45
2022-11-07T10:22:56.356Z,11.46
2022-11-07T10:25:55.098Z,11.49
2022-11-07T10:28:22.119Z,11.53
2022-11-07T10:30:50.446Z,11.51
2022-11-07T10:33:17.068Z,11.55
2022-11-07T10:35:45.889Z,11.58
2022-11-07T10:38:17.533Z,11.59
2022-11-07T10:44:22.798Z,11.58
2022-11-07T10:46:51.631Z,11.61
2022-11-07T10:49:20.851Z,11.64
2022-11-07T10:51:47.667Z,11.68
2022-11-07T10:54:21.858Z,11.65
2022-11-07T10:56:57.312Z,11.67
2022-11-07T10:59:28.083Z,11.71
2022-11-07T11:01:58.655Z,11.73
2022-11-07T11:04:26.548Z,11.76
2022-11-07T11:06:56.612Z,11.77
2022-11-07T11:09:23.500Z,11.80
2022-11-07T11:11:51.822Z,11.81
2022-11-07T11:14:20.189Z,11.81
2022-11-07T11:16:51.452Z,11.81
2022-11-07T11:19:41.217Z,11.83
2022-11-07T11:22:18.182Z,11.89
2022-11-07T11:24:44.577Z,11.90
2022-11-07T11:27:14.094Z,11.95
2022-11-07T11:29:48.336Z,12.00
2022-11-07T11:32:22.538Z,12.03
2022-11-07T11:34:53.088Z,12.05
2022-11-07T11:37:20.976Z,12.04
2022-11-07T11:40:00.023Z,12.05
2022-11-07T11:42:32.357Z,12.10
2022-11-07T11:45:03.552Z,12.11
2022-11-07T11:47:41.596Z,12.17
2022-11-07T11:50:17.021Z,12.15
2022-11-07T11:52:44.100Z,12.14
2022-11-07T11:55:14.509Z,12.12
2022-11-07T11:57:53.229Z,12.10
2022-11-07T12:00:20.783Z,12.16
2022-11-07T12:02:47.592Z,12.18
2022-11-07T12:05:29.185Z,12.22
2022-11-07T12:07:58.681Z,12.20
2022-11-07T12:10:25.057Z,12.18
2022-11-07T12:13:00.420Z,12.18
2022-11-07T12:15:32.792Z,12.17
2022-11-07T12:18:06.126Z,12.18
2022-11-07T12:20:38.725Z,12.20
2022-11-07T12:23:07.954Z,12.20
2022-11-07T12:25:40.387Z,12.23
2022-11-07T12:28:18.980Z,12.23
2022-11-07T12:30:51.449Z,12.22
2022-11-07T12:33:36.858Z,12.14
2022-11-07T12:36:11.006Z,12.07
2022-11-07T12:38:56.217Z,12.03
2022-11-07T12:41:28.465Z,11.99
2022-11-07T12:44:06.692Z,12.04
2022-11-07T12:46:53.335Z,12.10
2022-11-07T12:49:29.070Z,12.14
2022-11-07T12:52:01.083Z,12.10
2022-11-07T12:54:40.063Z,12.10
2022-11-07T12:57:15.670Z,12.06
2022-11-07T12:59:44.332Z,12.07
2022-11-07T13:02:16.904Z,12.12
2022-11-07T13:04:53.110Z,12.15
2022-11-07T13:07:29.190Z,12.18
2022-11-07T13:09:55.552Z,12.18
2022-11-07T13:12:26.996Z,12.05
2022-11-07T13:14:53.693Z,12.02
2022-11-07T13:17:24.096Z,12.03
2022-11-07T13:20:00.993Z,12.03
2022-11-07T13:22:38.282Z,12.04
2022-11-07T13:25:10.552Z,12.07
2022-11-07T13:27:40.941Z,12.04
2022-11-07T13:30:19.140Z,12.03
2022-11-07T13:32:47.547Z,12.02
2022-11-07T13:35:22.858Z,12.01
2022-11-07T13:37:58.312Z,11.99
2022-11-07T13:40:24.769Z,12.02
2022-11-07T13:42:56.363Z,12.05
2022-11-07T13:45:31.606Z,12.04
2022-11-07T13:48:04.157Z,11.99
2022-11-07T13:50:54.231Z,11.93
2022-11-07T13:53:29.496Z,11.90
2022-11-07T13:56:00.635Z,11.86
2022-11-07T13:58:28.562Z,11.86
2022-11-07T14:00:55.175Z,11.83
2022-11-07T14:03:29.196Z,11.78
2022-11-07T14:05:56.131Z,11.73
2022-11-07T14:08:29.009Z,11.74
2022-11-07T14:10:55.417Z,11.71
2022-11-07T14:13:24.847Z,11.73
2022-11-07T14:15:54.006Z,11.78
2022-11-07T14:18:21.228Z,11.79
2022-11-07T14:20:53.468Z,11.78
2022-11-07T14:23:23.782Z,11.76
2022-11-07T14:26:03.547Z,11.73
2022-11-07T14:28:34.838Z,11.73
2022-11-07T14:31:02.489Z,11.72
2022-11-07T14:33:28.902Z,11.68
2022-11-07T14:35:55.414Z,11.65
2022-11-07T14:38:25.478Z,11.62
2022-11-07T14:40:53.310Z,11.59
2022-11-07T14:43:21.052Z,11.57
2022-11-07T14:46:11.340Z,11.55
2022-11-07T14:48:35.946Z,11.54
2022-11-07T14:51:02.838Z,11.50
2022-11-07T14:53:37.139Z,11.39
2022-11-07T14:56:06.293Z,11.35
2022-11-07T14:58:32.952Z,11.33
2022-11-07T15:01:08.521Z,11.31
2022-11-07T15:03:36.840Z,11.27
2022-11-07T15:06:03.722Z,11.23
2022-11-07T15:08:34.779Z,11.15
2022-11-07T15:11:01.142Z,11.08
2022-11-07T15:13:29.004Z,11.02
2022-11-07T15:16:15.446Z,10.93
2022-11-07T15:18:43.730Z,10.83
2022-11-07T15:21:11.703Z,10.75
2022-11-07T15:23:38.133Z,10.68
2022-11-07T15:26:07.626Z,10.62
2022-11-07T15:28:50.299Z,10.55
2022-11-07T15:31:24.710Z,10.48
2022-11-07T15:33:52.346Z,10.43
2022-11-07T15:36:19.139Z,10.36
2022-11-07T15:38:45.621Z,10.31
2022-11-07T15:41:12.605Z,10.29
2022-11-07T15:43:39.020Z,10.26
2022-11-07T15:46:24.316Z,10.23
2022-11-07T15:48:50.807Z,10.24
2022-11-07T15:51:17.317Z,10.18
2022-11-07T15:53:43.741Z,10.13
2022-11-07T15:56:13.142Z,10.08
2022-11-07T15:58:39.613Z,10.03
2022-11-07T16:01:06.068Z,9.96
2022-11-07T16:03:32.523Z,9.91
2022-11-07T16:06:01.681Z,9.85
2022-11-07T16:08:29.159Z,9.77
2022-11-07T16:11:01.021Z,9.70
2022-11-07T16:13:27.992Z,9.60
2022-11-07T16:15:59.645Z,9.55
2022-11-07T16:18:27.120Z,9.49
2022-11-07T16:20:53.732Z,9.41
2022-11-07T16:23:20.173Z,9.36
2022-11-07T16:25:48.313Z,9.32
2022-11-07T16:28:18.100Z,9.32
2022-11-07T16:30:44.813Z,9.29
2022-11-07T16:33:12.282Z,9.23
2022-11-07T16:35:39.127Z,9.16
2022-11-07T16:38:11.430Z,9.12
2022-11-07T16:40:37.844Z,9.07
2022-11-07T16:43:05.332Z,9.00
2022-11-07T16:45:31.770Z,8.96
2022-11-07T16:47:59.006Z,8.91
2022-11-07T16:50:25.374Z,8.84
2022-11-07T16:52:51.785Z,8.76
2022-11-07T16:55:19.051Z,8.66
2022-11-07T16:57:45.908Z,8.57
2022-11-07T17:00:17.496Z,8.57
2022-11-07T17:02:44.244Z,8.58
2022-11-07T17:05:10.731Z,8.53
2022-11-07T17:07:37.107Z,8.47
2022-11-07T17:10:03.915Z,8.45
2022-11-07T17:12:30.485Z,8.43
2022-11-07T17:14:57.125Z,8.43
2022-11-07T17:17:23.765Z,8.38
2022-11-07T17:19:50.206Z,8.36
2022-11-07T17:22:17.813Z,8.31
2022-11-07T17:24:45.293Z,8.27
2022-11-07T17:27:20.779Z,8.23
2022-11-07T17:29:47.262Z,8.18
2022-11-07T17:32:15.996Z,8.15
2022-11-07T17:34:42.433Z,8.10
2022-11-07T17:37:13.415Z,8.04
2022-11-07T17:39:39.822Z,7.99
2022-11-07T17:42:06.232Z,7.91
2022-11-07T17:44:32.616Z,7.87
2022-11-07T17:47:04.503Z,7.80
2022-11-07T17:49:30.894Z,7.80
2022-11-07T17:51:57.825Z,7.81
2022-11-07T17:54:29.282Z,7.77
2022-11-07T17:56:56.092Z,7.69
2022-11-07T17:59:23.346Z,7.58
2022-11-07T18:01:49.907Z,7.51
2022-11-07T18:04:16.404Z,7.44
2022-11-07T18:06:42.824Z,7.45
2022-11-07T18:09:13.154Z,7.36
2022-11-07T18:11:39.540Z,7.29
2022-11-07T18:14:05.991Z,7.29
2022-11-07T18:16:33.675Z,7.25
2022-11-07T18:19:00.682Z,7.23
2022-11-07T18:21:27.381Z,7.23
2022-11-07T18:23:53.899Z,7.18
2022-11-07T18:26:32.312Z,7.17
2022-11-07T18:29:03.124Z,7.19
2022-11-07T18:31:29.653Z,7.12
2022-11-07T18:33:57.693Z,7.04
2022-11-07T18:36:25.760Z,7.01
2022-11-07T18:38:52.206Z,6.99
2022-11-07T18:41:20.590Z,7.03
2022-11-07T18:43:47.107Z,7.06
2022-11-07T18:46:16.900Z,7.06
2022-11-07T18:48:43.336Z,7.08
2022-11-07T18:51:11.468Z,7.07
2022-11-07T18:53:38.473Z,7.06
2022-11-07T18:56:06.562Z,7.01
2022-11-07T18:58:36.897Z,6.96
2022-11-07T19:01:04.726Z,6.93
2022-11-07T19:03:33.588Z,6.91
2022-11-07T19:06:02.665Z,6.90
2022-11-07T19:08:33.526Z,6.87
2022-11-07T19:11:00.765Z,6.83
2022-11-07T19:13:27.937Z,6.86
2022-11-07T19:15:54.468Z,6.88
2022-11-07T19:18:21.296Z,6.92
2022-11-07T19:20:48.361Z,6.97
2022-11-07T19:23:15.496Z,7.00
2022-11-07T19:25:42.527Z,6.98
2022-11-07T19:28:09.541Z,6.97
2022-11-07T19:30:36.425Z,6.97
2022-11-07T19:33:03.559Z,7.01
2022-11-07T19:35:31.002Z,7.01
2022-11-07T19:37:57.787Z,7.03
2022-11-07T19:40:24.360Z,7.07
2022-11-07T19:42:51.568Z,7.12
2022-11-07T19:45:18.808Z,7.16
2022-11-07T19:47:45.447Z,7.18
2022-11-07T19:50:12.156Z,7.22
2022-11-07T19:52:38.594Z,7.21
2022-11-07T19:55:05.265Z,7.21
2022-11-07T19:57:31.753Z,7.23
2022-11-07T19:59:58.128Z,7.24
2022-11-07T20:02:34.446Z,7.22
2022-11-07T20:05:02.959Z,7.23
2022-11-07T20:07:29.359Z,7.18
2022-11-07T20:09:56.810Z,7.08
2022-11-07T20:12:23.211Z,7.01
2022-11-07T20:14:49.594Z,7.01
2022-11-07T20:17:16.019Z,7.11
2022-11-07T20:19:42.415Z,7.18
2022-11-07T20:22:12.018Z,7.23
2022-11-07T20:24:38.561Z,7.25
2022-11-07T20:27:04.974Z,7.28
2022-11-07T20:29:31.841Z,7.33
2022-11-07T20:31:58.382Z,7.35
2022-11-07T20:34:24.870Z,7.38
2022-11-07T20:36:53.887Z,7.30
2022-11-07T20:39:20.279Z,7.17
2022-11-07T20:41:47.371Z,7.18
2022-11-07T20:44:15.151Z,7.21
2022-11-07T20:46:43.074Z,7.29
2022-11-07T20:49:11.577Z,7.35
2022-11-07T20:51:38.006Z,7.40
2022-11-07T20:54:04.592Z,7.41
2022-11-07T20:56:31.470Z,7.38
2022-11-07T20:58:58.233Z,7.35
2022-11-07T21:01:26.085Z,7.40
2022-11-07T21:03:52.644Z,7.43
2022-11-07T21:06:19.448Z,7.44
2022-11-07T21:08:47.310Z,7.41
2022-11-07T21:11:14.359Z,7.43
2022-11-07T21:13:42.073Z,7.46
2022-11-07T21:16:09.214Z,7.47
2022-11-07T21:18:38.715Z,7.46
2022-11-07T21:21:06.332Z,7.46
2022-11-07T21:23:32.736Z,7.45
2022-11-07T21:25:59.140Z,7.48
2022-11-07T21:28:26.385Z,7.41
2022-11-07T21:30:59.631Z,7.35
2022-11-07T21:33:26.097Z,7.39
2022-11-07T21:35:52.552Z,7.45
2022-11-07T21:38:19.137Z,7.47
2022-11-07T21:40:45.535Z,7.51
2022-11-07T21:43:12.253Z,7.49
2022-11-07T21:45:38.810Z,7.40
2022-11-07T21:48:05.343Z,7.44
2022-11-07T21:50:44.285Z,7.48
2022-11-07T21:53:11.596Z,7.56
2022-11-07T21:55:37.980Z,7.56
2022-11-07T21:58:04.473Z,7.59
2022-11-07T22:00:35.855Z,7.58
2022-11-07T22:03:02.863Z,7.54
2022-11-07T22:05:29.250Z,7.53
2022-11-07T22:07:55.638Z,7.52
2022-11-07T22:10:22.003Z,7.53
2022-11-07T22:12:48.386Z,7.58
2022-11-07T22:15:14.815Z,7.55
2022-11-07T22:17:41.183Z,7.56
2022-11-07T22:20:07.879Z,7.60
2022-11-07T22:22:36.182Z,7.62
2022-11-07T22:25:02.593Z,7.61
2022-11-07T22:27:28.993Z,7.59
2022-11-07T22:29:55.372Z,7.61
2022-11-07T22:32:21.831Z,7.64
2022-11-07T22:34:48.300Z,7.68
2022-11-07T22:37:14.673Z,7.69
2022-11-07T22:39:41.046Z,7.64
2022-11-07T22:42:07.521Z,7.66
2022-11-07T22:44:33.883Z,7.68
2022-11-07T22:47:00.254Z,7.71
2022-11-07T22:49:26.752Z,7.72
2022-11-07T22:51:53.129Z,7.77
2022-11-07T22:54:19.507Z,7.81
2022-11-07T22:56:45.914Z,7.80
2022-11-07T22:59:12.354Z,7.80
2022-11-07T23:01:40.653Z,7.78
2022-11-07T23:04:08.028Z,7.81
2022-11-07T23:06:36.531Z,7.83
2022-11-07T23:09:02.919Z,7.86
2022-11-07T23:11:49.346Z,7.89
2022-11-07T23:14:17.905Z,7.90
2022-11-07T23:16:51.786Z,7.88
2022-11-07T23:19:19.196Z,7.87
2022-11-07T23:21:45.721Z,7.85
2022-11-07T23:24:12.294Z,7.84
2022-11-07T23:26:39.424Z,7.83
2022-11-07T23:29:10.803Z,7.84
2022-11-07T23:31:38.516Z,7.78
2022-11-07T23:34:04.884Z,7.62
2022-11-07T23:36:31.252Z,7.62
2022-11-07T23:38:57.638Z,7.65
2022-11-07T23:41:24.101Z,7.69
2022-11-07T23:43:52.609Z,7.73
2022-11-07T23:46:37.933Z,7.74
2022-11-07T23:49:22.925Z,7.66
2022-11-07T23:51:49.314Z,7.69
2022-11-07T23:54:34.244Z,7.73
2022-11-07T23:57:00.771Z,7.71
2022-11-07T23:59:45.545Z,7.74
